sensor_id;sensor_type;location;lat;lon;timestamp;P1;durP1;ratioP1;P2;durP2;ratioP2
61960;SDS011;47923;42.506;24.192;2023-11-21T00:00:33;33.05;;;22.33;;
61960;SDS011;47923;42.506;24.192;2023-11-21T00:02:59;37.80;;;27.08;;
61960;SDS011;47923;42.506;24.192;2023-11-21T00:05:24;24.45;;;14.75;;
61960;SDS011;47923;42.506;24.192;2023-11-21T00:07:49;21.67;;;14.02;;
61960;SDS011;47923;42.506;24.192;2023-11-21T00:10:16;19.73;;;11.95;;
61960;SDS011;47923;42.506;24.192;2023-11-21T00:12:42;26.15;;;15.93;;
61960;SDS011;47923;42.506;24.192;2023-11-21T00:15:08;23.17;;;16.65;;
61960;SDS011;47923;42.506;24.192;2023-11-21T00:17:36;24.23;;;17.77;;
61960;SDS011;47923;42.506;24.192;2023-11-21T00:20:02;23.45;;;16.50;;
61960;SDS011;47923;42.506;24.192;2023-11-21T00:22:31;23.35;;;15.73;;
61960;SDS011;47923;42.506;24.192;2023-11-21T00:24:57;20.70;;;13.98;;
61960;SDS011;47923;42.506;24.192;2023-11-21T00:27:23;21.27;;;13.57;;
61960;SDS011;47923;42.506;24.192;2023-11-21T00:29:48;17.63;;;10.85;;
61960;SDS011;47923;42.506;24.192;2023-11-21T00:32:13;17.10;;;8.23;;
61960;SDS011;47923;42.506;24.192;2023-11-21T00:34:39;15.05;;;6.40;;
61960;SDS011;47923;42.506;24.192;2023-11-21T00:37:05;18.45;;;9.82;;
61960;SDS011;47923;42.506;24.192;2023-11-21T00:39:30;38.55;;;25.92;;
61960;SDS011;47923;42.506;24.192;2023-11-21T00:41:55;38.90;;;27.98;;
61960;SDS011;47923;42.506;24.192;2023-11-21T00:44:21;71.10;;;53.28;;
61960;SDS011;47923;42.506;24.192;2023-11-21T00:46:47;78.18;;;59.70;;
61960;SDS011;47923;42.506;24.192;2023-11-21T00:49:12;65.82;;;50.60;;
61960;SDS011;47923;42.506;24.192;2023-11-21T00:51:38;52.65;;;40.67;;
61960;SDS011;47923;42.506;24.192;2023-11-21T00:54:03;28.42;;;20.80;;
61960;SDS011;47923;42.506;24.192;2023-11-21T00:56:29;23.10;;;16.38;;
61960;SDS011;47923;42.506;24.192;2023-11-21T00:58:55;17.88;;;11.27;;
61960;SDS011;47923;42.506;24.192;2023-11-21T01:01:21;13.65;;;9.02;;
61960;SDS011;47923;42.506;24.192;2023-11-21T01:03:47;17.00;;;11.30;;
61960;SDS011;47923;42.506;24.192;2023-11-21T01:06:13;24.08;;;17.35;;
61960;SDS011;47923;42.506;24.192;2023-11-21T01:08:39;20.70;;;13.75;;
61960;SDS011;47923;42.506;24.192;2023-11-21T01:11:05;17.10;;;11.88;;
61960;SDS011;47923;42.506;24.192;2023-11-21T01:13:33;16.70;;;10.65;;
61960;SDS011;47923;42.506;24.192;2023-11-21T01:15:59;14.95;;;10.20;;
61960;SDS011;47923;42.506;24.192;2023-11-21T01:18:24;17.33;;;11.88;;
61960;SDS011;47923;42.506;24.192;2023-11-21T01:20:54;19.17;;;12.48;;
61960;SDS011;47923;42.506;24.192;2023-11-21T01:23:19;19.23;;;12.85;;
61960;SDS011;47923;42.506;24.192;2023-11-21T01:25:45;26.95;;;18.63;;
61960;SDS011;47923;42.506;24.192;2023-11-21T01:28:10;21.90;;;13.70;;
61960;SDS011;47923;42.506;24.192;2023-11-21T01:30:37;17.08;;;11.60;;
61960;SDS011;47923;42.506;24.192;2023-11-21T01:33:02;30.83;;;23.40;;
61960;SDS011;47923;42.506;24.192;2023-11-21T01:35:28;33.33;;;25.88;;
61960;SDS011;47923;42.506;24.192;2023-11-21T01:37:53;39.72;;;31.63;;
61960;SDS011;47923;42.506;24.192;2023-11-21T01:40:18;42.33;;;31.42;;
61960;SDS011;47923;42.506;24.192;2023-11-21T01:42:44;43.67;;;33.42;;
61960;SDS011;47923;42.506;24.192;2023-11-21T01:45:10;36.67;;;28.80;;
61960;SDS011;47923;42.506;24.192;2023-11-21T01:47:37;43.05;;;32.72;;
61960;SDS011;47923;42.506;24.192;2023-11-21T01:50:03;35.90;;;28.40;;
61960;SDS011;47923;42.506;24.192;2023-11-21T01:52:32;22.17;;;15.57;;
61960;SDS011;47923;42.506;24.192;2023-11-21T01:55:00;23.25;;;15.52;;
61960;SDS011;47923;42.506;24.192;2023-11-21T01:57:26;18.98;;;14.18;;
61960;SDS011;47923;42.506;24.192;2023-11-21T01:59:52;19.75;;;14.00;;
61960;SDS011;47923;42.506;24.192;2023-11-21T02:02:19;21.42;;;16.55;;
61960;SDS011;47923;42.506;24.192;2023-11-21T02:04:44;29.10;;;21.83;;
61960;SDS011;47923;42.506;24.192;2023-11-21T02:07:10;21.98;;;17.65;;
61960;SDS011;47923;42.506;24.192;2023-11-21T02:09:35;26.90;;;20.17;;
61960;SDS011;47923;42.506;24.192;2023-11-21T02:12:03;24.50;;;18.48;;
61960;SDS011;47923;42.506;24.192;2023-11-21T02:14:29;32.67;;;24.38;;
61960;SDS011;47923;42.506;24.192;2023-11-21T02:16:55;28.00;;;20.27;;
61960;SDS011;47923;42.506;24.192;2023-11-21T02:19:22;24.10;;;16.48;;
61960;SDS011;47923;42.506;24.192;2023-11-21T02:21:50;24.40;;;16.75;;
61960;SDS011;47923;42.506;24.192;2023-11-21T02:24:20;23.13;;;16.05;;
61960;SDS011;47923;42.506;24.192;2023-11-21T02:26:46;20.52;;;14.07;;
61960;SDS011;47923;42.506;24.192;2023-11-21T02:29:18;19.42;;;13.48;;
61960;SDS011;47923;42.506;24.192;2023-11-21T02:31:47;26.20;;;18.33;;
61960;SDS011;47923;42.506;24.192;2023-11-21T02:34:17;28.08;;;20.02;;
61960;SDS011;47923;42.506;24.192;2023-11-21T02:36:43;21.85;;;14.70;;
61960;SDS011;47923;42.506;24.192;2023-11-21T02:39:12;22.55;;;16.15;;
61960;SDS011;47923;42.506;24.192;2023-11-21T02:41:38;19.13;;;13.65;;
61960;SDS011;47923;42.506;24.192;2023-11-21T02:44:04;21.30;;;13.15;;
61960;SDS011;47923;42.506;24.192;2023-11-21T02:46:33;19.88;;;13.15;;
61960;SDS011;47923;42.506;24.192;2023-11-21T02:49:00;16.90;;;10.77;;
61960;SDS011;47923;42.506;24.192;2023-11-21T02:51:26;38.40;;;28.05;;
61960;SDS011;47923;42.506;24.192;2023-11-21T02:53:51;42.45;;;33.38;;
61960;SDS011;47923;42.506;24.192;2023-11-21T02:56:17;39.88;;;30.52;;
61960;SDS011;47923;42.506;24.192;2023-11-21T02:58:43;39.58;;;29.88;;
61960;SDS011;47923;42.506;24.192;2023-11-21T03:01:10;34.80;;;25.50;;
61960;SDS011;47923;42.506;24.192;2023-11-21T03:03:36;28.98;;;21.17;;
61960;SDS011;47923;42.506;24.192;2023-11-21T03:06:04;22.60;;;16.23;;
61960;SDS011;47923;42.506;24.192;2023-11-21T03:08:30;20.40;;;11.95;;
61960;SDS011;47923;42.506;24.192;2023-11-21T03:10:55;16.85;;;10.45;;
61960;SDS011;47923;42.506;24.192;2023-11-21T03:13:21;15.55;;;9.38;;
61960;SDS011;47923;42.506;24.192;2023-11-21T03:15:46;30.15;;;22.88;;
61960;SDS011;47923;42.506;24.192;2023-11-21T03:18:12;47.03;;;37.40;;
61960;SDS011;47923;42.506;24.192;2023-11-21T03:20:38;41.35;;;31.98;;
61960;SDS011;47923;42.506;24.192;2023-11-21T03:23:03;45.30;;;32.63;;
61960;SDS011;47923;42.506;24.192;2023-11-21T03:25:30;39.83;;;31.60;;
61960;SDS011;47923;42.506;24.192;2023-11-21T03:27:56;45.58;;;34.65;;
61960;SDS011;47923;42.506;24.192;2023-11-21T03:30:21;18.63;;;12.88;;
61960;SDS011;47923;42.506;24.192;2023-11-21T03:32:47;16.13;;;9.93;;
61960;SDS011;47923;42.506;24.192;2023-11-21T03:35:13;14.02;;;7.68;;
61960;SDS011;47923;42.506;24.192;2023-11-21T03:37:38;16.17;;;8.63;;
61960;SDS011;47923;42.506;24.192;2023-11-21T03:40:06;22.65;;;14.52;;
61960;SDS011;47923;42.506;24.192;2023-11-21T03:42:34;29.50;;;19.90;;
61960;SDS011;47923;42.506;24.192;2023-11-21T03:45:00;21.90;;;14.32;;
61960;SDS011;47923;42.506;24.192;2023-11-21T03:47:28;16.95;;;10.85;;
61960;SDS011;47923;42.506;24.192;2023-11-21T03:49:54;19.90;;;9.43;;
61960;SDS011;47923;42.506;24.192;2023-11-21T03:52:19;23.48;;;16.42;;
61960;SDS011;47923;42.506;24.192;2023-11-21T03:54:44;37.00;;;26.27;;
61960;SDS011;47923;42.506;24.192;2023-11-21T03:57:10;34.53;;;22.88;;
61960;SDS011;47923;42.506;24.192;2023-11-21T03:59:39;30.58;;;16.58;;
61960;SDS011;47923;42.506;24.192;2023-11-21T04:02:06;27.15;;;15.73;;
61960;SDS011;47923;42.506;24.192;2023-11-21T04:04:32;26.27;;;15.70;;
61960;SDS011;47923;42.506;24.192;2023-11-21T04:06:58;29.25;;;19.08;;
61960;SDS011;47923;42.506;24.192;2023-11-21T04:09:24;33.05;;;22.27;;
61960;SDS011;47923;42.506;24.192;2023-11-21T04:11:50;28.88;;;18.48;;
61960;SDS011;47923;42.506;24.192;2023-11-21T04:14:17;33.35;;;20.42;;
61960;SDS011;47923;42.506;24.192;2023-11-21T04:16:42;37.88;;;21.08;;
61960;SDS011;47923;42.506;24.192;2023-11-21T04:19:09;33.25;;;21.63;;
61960;SDS011;47923;42.506;24.192;2023-11-21T04:21:43;34.88;;;21.25;;
61960;SDS011;47923;42.506;24.192;2023-11-21T04:24:09;35.53;;;19.45;;
61960;SDS011;47923;42.506;24.192;2023-11-21T04:26:35;36.30;;;19.95;;
61960;SDS011;47923;42.506;24.192;2023-11-21T04:29:01;33.90;;;19.27;;
61960;SDS011;47923;42.506;24.192;2023-11-21T04:31:26;35.30;;;22.13;;
61960;SDS011;47923;42.506;24.192;2023-11-21T04:33:52;36.95;;;20.60;;
61960;SDS011;47923;42.506;24.192;2023-11-21T04:36:18;38.60;;;25.27;;
61960;SDS011;47923;42.506;24.192;2023-11-21T04:38:44;22.25;;;13.95;;
61960;SDS011;47923;42.506;24.192;2023-11-21T04:41:10;32.00;;;19.55;;
61960;SDS011;47923;42.506;24.192;2023-11-21T04:43:36;29.90;;;20.33;;
61960;SDS011;47923;42.506;24.192;2023-11-21T04:46:02;31.63;;;21.98;;
61960;SDS011;47923;42.506;24.192;2023-11-21T04:48:28;42.55;;;25.55;;
61960;SDS011;47923;42.506;24.192;2023-11-21T04:50:53;38.00;;;23.55;;
61960;SDS011;47923;42.506;24.192;2023-11-21T04:53:19;39.58;;;23.42;;
61960;SDS011;47923;42.506;24.192;2023-11-21T04:55:45;39.33;;;24.08;;
61960;SDS011;47923;42.506;24.192;2023-11-21T04:58:11;38.50;;;23.25;;
61960;SDS011;47923;42.506;24.192;2023-11-21T05:00:37;49.28;;;29.60;;
61960;SDS011;47923;42.506;24.192;2023-11-21T05:03:03;49.50;;;34.40;;
61960;SDS011;47923;42.506;24.192;2023-11-21T05:05:30;79.00;;;53.00;;
61960;SDS011;47923;42.506;24.192;2023-11-21T05:07:55;59.85;;;42.33;;
61960;SDS011;47923;42.506;24.192;2023-11-21T05:10:21;49.03;;;34.25;;
61960;SDS011;47923;42.506;24.192;2023-11-21T05:12:47;40.10;;;28.35;;
61960;SDS011;47923;42.506;24.192;2023-11-21T05:15:15;39.13;;;27.50;;
61960;SDS011;47923;42.506;24.192;2023-11-21T05:17:42;48.17;;;36.33;;
61960;SDS011;47923;42.506;24.192;2023-11-21T05:20:13;78.63;;;57.42;;
61960;SDS011;47923;42.506;24.192;2023-11-21T05:22:42;73.47;;;55.10;;
61960;SDS011;47923;42.506;24.192;2023-11-21T05:25:08;74.32;;;56.65;;
61960;SDS011;47923;42.506;24.192;2023-11-21T05:27:35;80.45;;;56.25;;
61960;SDS011;47923;42.506;24.192;2023-11-21T05:30:04;66.65;;;50.38;;
61960;SDS011;47923;42.506;24.192;2023-11-21T05:32:31;49.80;;;35.50;;
61960;SDS011;47923;42.506;24.192;2023-11-21T05:34:59;67.72;;;49.75;;
61960;SDS011;47923;42.506;24.192;2023-11-21T05:37:25;59.88;;;51.58;;
61960;SDS011;47923;42.506;24.192;2023-11-21T05:39:52;100.80;;;84.60;;
61960;SDS011;47923;42.506;24.192;2023-11-21T05:42:18;83.80;;;68.95;;
61960;SDS011;47923;42.506;24.192;2023-11-21T05:44:43;114.20;;;86.75;;
61960;SDS011;47923;42.506;24.192;2023-11-21T05:47:09;58.78;;;47.15;;
61960;SDS011;47923;42.506;24.192;2023-11-21T05:49:35;60.90;;;50.13;;
61960;SDS011;47923;42.506;24.192;2023-11-21T05:52:01;42.22;;;32.88;;
61960;SDS011;47923;42.506;24.192;2023-11-21T05:54:27;31.05;;;27.13;;
61960;SDS011;47923;42.506;24.192;2023-11-21T05:56:53;45.28;;;36.35;;
61960;SDS011;47923;42.506;24.192;2023-11-21T05:59:19;35.28;;;25.80;;
61960;SDS011;47923;42.506;24.192;2023-11-21T06:01:45;33.25;;;25.30;;
61960;SDS011;47923;42.506;24.192;2023-11-21T06:04:11;40.95;;;28.05;;
61960;SDS011;47923;42.506;24.192;2023-11-21T06:06:37;44.90;;;31.90;;
61960;SDS011;47923;42.506;24.192;2023-11-21T06:09:04;38.72;;;29.90;;
61960;SDS011;47923;42.506;24.192;2023-11-21T06:11:31;42.72;;;32.38;;
61960;SDS011;47923;42.506;24.192;2023-11-21T06:13:57;41.30;;;31.17;;
61960;SDS011;47923;42.506;24.192;2023-11-21T06:16:23;46.25;;;32.03;;
61960;SDS011;47923;42.506;24.192;2023-11-21T06:18:49;64.68;;;42.47;;
61960;SDS011;47923;42.506;24.192;2023-11-21T06:21:14;94.93;;;54.35;;
61960;SDS011;47923;42.506;24.192;2023-11-21T06:23:41;87.53;;;50.85;;
61960;SDS011;47923;42.506;24.192;2023-11-21T06:26:07;69.60;;;39.20;;
61960;SDS011;47923;42.506;24.192;2023-11-21T06:28:34;51.22;;;32.42;;
61960;SDS011;47923;42.506;24.192;2023-11-21T06:31:01;43.28;;;28.70;;
61960;SDS011;47923;42.506;24.192;2023-11-21T06:33:30;47.28;;;29.55;;
61960;SDS011;47923;42.506;24.192;2023-11-21T06:35:56;59.90;;;40.80;;
61960;SDS011;47923;42.506;24.192;2023-11-21T06:38:22;72.40;;;46.67;;
61960;SDS011;47923;42.506;24.192;2023-11-21T06:40:48;98.18;;;58.10;;
61960;SDS011;47923;42.506;24.192;2023-11-21T06:43:13;66.15;;;43.20;;
61960;SDS011;47923;42.506;24.192;2023-11-21T06:45:40;68.60;;;45.33;;
61960;SDS011;47923;42.506;24.192;2023-11-21T06:48:05;54.05;;;37.88;;
61960;SDS011;47923;42.506;24.192;2023-11-21T06:50:31;128.10;;;76.90;;
61960;SDS011;47923;42.506;24.192;2023-11-21T06:52:56;69.25;;;45.85;;
61960;SDS011;47923;42.506;24.192;2023-11-21T06:55:22;57.88;;;40.70;;
61960;SDS011;47923;42.506;24.192;2023-11-21T06:57:47;57.33;;;42.97;;
61960;SDS011;47923;42.506;24.192;2023-11-21T07:00:13;64.45;;;48.15;;
61960;SDS011;47923;42.506;24.192;2023-11-21T07:02:43;68.82;;;52.95;;
61960;SDS011;47923;42.506;24.192;2023-11-21T07:05:09;70.15;;;55.42;;
61960;SDS011;47923;42.506;24.192;2023-11-21T07:07:34;64.88;;;48.35;;
61960;SDS011;47923;42.506;24.192;2023-11-21T07:10:01;57.45;;;43.75;;
61960;SDS011;47923;42.506;24.192;2023-11-21T07:12:28;56.20;;;45.47;;
61960;SDS011;47923;42.506;24.192;2023-11-21T07:14:55;60.05;;;46.25;;
61960;SDS011;47923;42.506;24.192;2023-11-21T07:17:20;59.83;;;47.10;;
61960;SDS011;47923;42.506;24.192;2023-11-21T07:19:48;59.00;;;45.85;;
61960;SDS011;47923;42.506;24.192;2023-11-21T07:22:14;48.38;;;39.17;;
61960;SDS011;47923;42.506;24.192;2023-11-21T07:24:40;45.85;;;34.63;;
61960;SDS011;47923;42.506;24.192;2023-11-21T07:27:06;40.35;;;31.85;;
61960;SDS011;47923;42.506;24.192;2023-11-21T07:29:35;37.70;;;29.40;;
61960;SDS011;47923;42.506;24.192;2023-11-21T07:32:00;35.88;;;25.50;;
61960;SDS011;47923;42.506;24.192;2023-11-21T07:34:27;30.45;;;25.63;;
61960;SDS011;47923;42.506;24.192;2023-11-21T07:36:56;31.65;;;23.92;;
61960;SDS011;47923;42.506;24.192;2023-11-21T07:39:24;34.70;;;24.42;;
61960;SDS011;47923;42.506;24.192;2023-11-21T07:41:54;34.97;;;25.65;;
61960;SDS011;47923;42.506;24.192;2023-11-21T07:44:23;36.22;;;29.27;;
61960;SDS011;47923;42.506;24.192;2023-11-21T07:46:49;34.30;;;29.20;;
61960;SDS011;47923;42.506;24.192;2023-11-21T07:49:15;40.08;;;32.00;;
61960;SDS011;47923;42.506;24.192;2023-11-21T07:51:46;38.17;;;31.55;;
61960;SDS011;47923;42.506;24.192;2023-11-21T07:54:11;36.38;;;28.90;;
61960;SDS011;47923;42.506;24.192;2023-11-21T07:56:38;42.50;;;32.33;;
61960;SDS011;47923;42.506;24.192;2023-11-21T07:59:04;35.08;;;29.67;;
61960;SDS011;47923;42.506;24.192;2023-11-21T08:01:33;34.88;;;29.17;;
61960;SDS011;47923;42.506;24.192;2023-11-21T08:03:59;33.42;;;28.02;;
61960;SDS011;47923;42.506;24.192;2023-11-21T08:06:28;38.45;;;29.83;;
61960;SDS011;47923;42.506;24.192;2023-11-21T08:08:58;37.80;;;32.00;;
61960;SDS011;47923;42.506;24.192;2023-11-21T08:11:43;36.85;;;24.50;;
61960;SDS011;47923;42.506;24.192;2023-11-21T08:14:14;31.83;;;25.20;;
61960;SDS011;47923;42.506;24.192;2023-11-21T08:16:43;34.08;;;29.27;;
61960;SDS011;47923;42.506;24.192;2023-11-21T08:19:12;48.22;;;39.63;;
61960;SDS011;47923;42.506;24.192;2023-11-21T08:21:39;40.25;;;34.45;;
61960;SDS011;47923;42.506;24.192;2023-11-21T08:24:07;32.70;;;27.58;;
61960;SDS011;47923;42.506;24.192;2023-11-21T08:26:36;24.75;;;20.70;;
61960;SDS011;47923;42.506;24.192;2023-11-21T08:29:04;22.60;;;20.15;;
61960;SDS011;47923;42.506;24.192;2023-11-21T08:31:32;27.88;;;24.70;;
61960;SDS011;47923;42.506;24.192;2023-11-21T08:33:57;28.55;;;24.77;;
61960;SDS011;47923;42.506;24.192;2023-11-21T08:36:23;28.75;;;25.27;;
61960;SDS011;47923;42.506;24.192;2023-11-21T08:38:50;26.85;;;21.23;;
61960;SDS011;47923;42.506;24.192;2023-11-21T08:41:17;23.10;;;18.67;;
61960;SDS011;47923;42.506;24.192;2023-11-21T08:43:47;20.33;;;15.10;;
61960;SDS011;47923;42.506;24.192;2023-11-21T08:46:13;17.02;;;13.07;;
61960;SDS011;47923;42.506;24.192;2023-11-21T08:48:40;15.90;;;12.15;;
61960;SDS011;47923;42.506;24.192;2023-11-21T08:51:06;15.35;;;11.27;;
61960;SDS011;47923;42.506;24.192;2023-11-21T08:53:34;15.30;;;11.70;;
61960;SDS011;47923;42.506;24.192;2023-11-21T08:56:00;15.20;;;10.23;;
61960;SDS011;47923;42.506;24.192;2023-11-21T08:58:27;15.23;;;10.82;;
61960;SDS011;47923;42.506;24.192;2023-11-21T09:00:52;16.08;;;10.65;;
61960;SDS011;47923;42.506;24.192;2023-11-21T09:03:18;19.27;;;12.00;;
61960;SDS011;47923;42.506;24.192;2023-11-21T09:05:44;21.92;;;16.05;;
61960;SDS011;47923;42.506;24.192;2023-11-21T09:08:10;22.67;;;16.75;;
61960;SDS011;47923;42.506;24.192;2023-11-21T09:10:35;25.35;;;17.98;;
61960;SDS011;47923;42.506;24.192;2023-11-21T09:13:02;27.58;;;17.60;;
61960;SDS011;47923;42.506;24.192;2023-11-21T09:18:03;32.35;;;19.33;;
61960;SDS011;47923;42.506;24.192;2023-11-21T09:20:30;25.40;;;13.45;;
61960;SDS011;47923;42.506;24.192;2023-11-21T09:22:55;30.13;;;17.98;;
61960;SDS011;47923;42.506;24.192;2023-11-21T09:25:21;16.48;;;8.90;;
61960;SDS011;47923;42.506;24.192;2023-11-21T09:27:47;11.57;;;5.57;;
61960;SDS011;47923;42.506;24.192;2023-11-21T09:30:13;6.13;;;2.50;;
61960;SDS011;47923;42.506;24.192;2023-11-21T09:32:41;5.07;;;2.13;;
61960;SDS011;47923;42.506;24.192;2023-11-21T09:35:10;5.03;;;1.88;;
61960;SDS011;47923;42.506;24.192;2023-11-21T09:37:36;4.80;;;2.28;;
61960;SDS011;47923;42.506;24.192;2023-11-21T09:40:04;6.65;;;2.80;;
61960;SDS011;47923;42.506;24.192;2023-11-21T09:42:32;5.15;;;2.40;;
61960;SDS011;47923;42.506;24.192;2023-11-21T09:45:05;6.40;;;2.97;;
61960;SDS011;47923;42.506;24.192;2023-11-21T09:47:40;10.50;;;5.10;;
61960;SDS011;47923;42.506;24.192;2023-11-21T09:50:08;6.90;;;2.58;;
61960;SDS011;47923;42.506;24.192;2023-11-21T09:52:44;4.00;;;1.80;;
61960;SDS011;47923;42.506;24.192;2023-11-21T09:55:18;5.28;;;2.10;;
61960;SDS011;47923;42.506;24.192;2023-11-21T09:57:51;4.57;;;1.80;;
61960;SDS011;47923;42.506;24.192;2023-11-21T10:00:19;5.82;;;2.40;;
61960;SDS011;47923;42.506;24.192;2023-11-21T10:02:48;7.25;;;2.63;;
61960;SDS011;47923;42.506;24.192;2023-11-21T10:05:15;9.82;;;3.40;;
61960;SDS011;47923;42.506;24.192;2023-11-21T10:07:43;6.15;;;1.80;;
61960;SDS011;47923;42.506;24.192;2023-11-21T10:10:10;5.32;;;2.15;;
61960;SDS011;47923;42.506;24.192;2023-11-21T10:12:36;6.40;;;2.30;;
61960;SDS011;47923;42.506;24.192;2023-11-21T10:15:03;7.35;;;3.00;;
61960;SDS011;47923;42.506;24.192;2023-11-21T10:17:33;11.70;;;2.70;;
61960;SDS011;47923;42.506;24.192;2023-11-21T10:20:08;7.47;;;2.83;;
61960;SDS011;47923;42.506;24.192;2023-11-21T10:22:38;6.80;;;2.95;;
61960;SDS011;47923;42.506;24.192;2023-11-21T10:25:10;5.63;;;2.08;;
61960;SDS011;47923;42.506;24.192;2023-11-21T10:27:36;5.45;;;2.15;;
61960;SDS011;47923;42.506;24.192;2023-11-21T10:30:04;5.45;;;2.13;;
61960;SDS011;47923;42.506;24.192;2023-11-21T10:32:30;13.15;;;7.18;;
61960;SDS011;47923;42.506;24.192;2023-11-21T10:34:58;32.85;;;20.42;;
61960;SDS011;47923;42.506;24.192;2023-11-21T10:37:35;6.82;;;3.60;;
61960;SDS011;47923;42.506;24.192;2023-11-21T10:40:11;9.73;;;4.75;;
61960;SDS011;47923;42.506;24.192;2023-11-21T10:42:37;5.40;;;2.10;;
61960;SDS011;47923;42.506;24.192;2023-11-21T10:45:04;1.70;;;0.80;;
61960;SDS011;47923;42.506;24.192;2023-11-21T10:47:37;3.53;;;1.08;;
61960;SDS011;47923;42.506;24.192;2023-11-21T10:50:04;2.75;;;1.05;;
61960;SDS011;47923;42.506;24.192;2023-11-21T10:52:30;4.25;;;1.75;;
61960;SDS011;47923;42.506;24.192;2023-11-21T10:54:56;4.35;;;2.10;;
61960;SDS011;47923;42.506;24.192;2023-11-21T10:57:24;3.63;;;1.13;;
61960;SDS011;47923;42.506;24.192;2023-11-21T10:59:50;7.78;;;3.08;;
61960;SDS011;47923;42.506;24.192;2023-11-21T11:04:57;6.82;;;3.47;;
61960;SDS011;47923;42.506;24.192;2023-11-21T11:07:26;9.85;;;3.10;;
61960;SDS011;47923;42.506;24.192;2023-11-21T11:09:57;2.47;;;0.80;;
61960;SDS011;47923;42.506;24.192;2023-11-21T11:12:24;5.00;;;2.38;;
61960;SDS011;47923;42.506;24.192;2023-11-21T11:14:49;8.20;;;3.75;;
61960;SDS011;47923;42.506;24.192;2023-11-21T11:17:18;9.40;;;5.10;;
61960;SDS011;47923;42.506;24.192;2023-11-21T11:19:46;7.38;;;3.80;;
61960;SDS011;47923;42.506;24.192;2023-11-21T11:28:52;4.70;;;2.22;;
61960;SDS011;47923;42.506;24.192;2023-11-21T11:31:46;11.85;;;4.63;;
61960;SDS011;47923;42.506;24.192;2023-11-21T11:37:07;22.23;;;5.93;;
61960;SDS011;47923;42.506;24.192;2023-11-21T11:39:40;6.50;;;3.10;;
61960;SDS011;47923;42.506;24.192;2023-11-21T11:42:10;6.88;;;3.60;;
61960;SDS011;47923;42.506;24.192;2023-11-21T11:47:16;3.47;;;1.85;;
61960;SDS011;47923;42.506;24.192;2023-11-21T11:52:47;5.45;;;2.33;;
61960;SDS011;47923;42.506;24.192;2023-11-21T11:55:16;5.72;;;1.63;;
61960;SDS011;47923;42.506;24.192;2023-11-21T11:57:43;4.63;;;1.67;;
61960;SDS011;47923;42.506;24.192;2023-11-21T12:02:51;4.82;;;2.15;;
61960;SDS011;47923;42.506;24.192;2023-11-21T12:05:22;4.25;;;1.92;;
61960;SDS011;47923;42.506;24.192;2023-11-21T12:10:19;1.90;;;0.77;;
61960;SDS011;47923;42.506;24.192;2023-11-21T12:12:50;1.65;;;1.08;;
61960;SDS011;47923;42.506;24.192;2023-11-21T12:15:17;1.50;;;0.80;;
61960;SDS011;47923;42.506;24.192;2023-11-21T12:17:44;1.50;;;0.88;;
61960;SDS011;47923;42.506;24.192;2023-11-21T12:20:10;3.30;;;0.80;;
61960;SDS011;47923;42.506;24.192;2023-11-21T12:22:44;2.97;;;1.15;;
61960;SDS011;47923;42.506;24.192;2023-11-21T12:25:17;6.60;;;2.28;;
61960;SDS011;47923;42.506;24.192;2023-11-21T12:27:53;1.75;;;0.85;;
61960;SDS011;47923;42.506;24.192;2023-11-21T12:30:20;2.80;;;0.98;;
61960;SDS011;47923;42.506;24.192;2023-11-21T12:32:54;4.93;;;1.70;;
61960;SDS011;47923;42.506;24.192;2023-11-21T12:35:27;3.42;;;1.80;;
61960;SDS011;47923;42.506;24.192;2023-11-21T12:37:54;12.85;;;7.70;;
61960;SDS011;47923;42.506;24.192;2023-11-21T12:40:22;6.85;;;2.90;;
61960;SDS011;47923;42.506;24.192;2023-11-21T12:42:48;13.32;;;7.28;;
61960;SDS011;47923;42.506;24.192;2023-11-21T12:48:04;4.75;;;2.28;;
61960;SDS011;47923;42.506;24.192;2023-11-21T12:50:33;7.03;;;3.80;;
61960;SDS011;47923;42.506;24.192;2023-11-21T12:53:00;6.50;;;2.60;;
61960;SDS011;47923;42.506;24.192;2023-11-21T12:55:29;6.05;;;2.63;;
61960;SDS011;47923;42.506;24.192;2023-11-21T12:57:56;8.82;;;4.10;;
61960;SDS011;47923;42.506;24.192;2023-11-21T13:00:33;4.28;;;1.92;;
61960;SDS011;47923;42.506;24.192;2023-11-21T13:03:02;5.65;;;2.58;;
61960;SDS011;47923;42.506;24.192;2023-11-21T13:05:30;7.85;;;3.05;;
61960;SDS011;47923;42.506;24.192;2023-11-21T13:08:10;6.72;;;2.55;;
61960;SDS011;47923;42.506;24.192;2023-11-21T13:10:44;7.90;;;3.25;;
61960;SDS011;47923;42.506;24.192;2023-11-21T13:13:12;9.68;;;5.07;;
61960;SDS011;47923;42.506;24.192;2023-11-21T13:15:50;14.53;;;5.10;;
61960;SDS011;47923;42.506;24.192;2023-11-21T13:18:34;10.80;;;4.75;;
61960;SDS011;47923;42.506;24.192;2023-11-21T13:21:01;10.73;;;5.82;;
61960;SDS011;47923;42.506;24.192;2023-11-21T13:23:48;11.93;;;5.47;;
61960;SDS011;47923;42.506;24.192;2023-11-21T13:26:16;11.10;;;6.20;;
61960;SDS011;47923;42.506;24.192;2023-11-21T13:28:42;9.48;;;3.88;;
61960;SDS011;47923;42.506;24.192;2023-11-21T13:31:11;7.55;;;3.83;;
61960;SDS011;47923;42.506;24.192;2023-11-21T13:33:48;10.93;;;4.68;;
61960;SDS011;47923;42.506;24.192;2023-11-21T13:36:20;12.73;;;5.32;;
61960;SDS011;47923;42.506;24.192;2023-11-21T13:38:49;10.00;;;4.15;;
61960;SDS011;47923;42.506;24.192;2023-11-21T13:41:15;9.45;;;5.13;;
61960;SDS011;47923;42.506;24.192;2023-11-21T13:43:43;8.32;;;4.28;;
61960;SDS011;47923;42.506;24.192;2023-11-21T13:46:15;7.82;;;3.63;;
61960;SDS011;47923;42.506;24.192;2023-11-21T13:48:46;9.93;;;4.35;;
61960;SDS011;47923;42.506;24.192;2023-11-21T13:51:20;9.55;;;4.90;;
61960;SDS011;47923;42.506;24.192;2023-11-21T13:53:56;12.80;;;6.80;;
61960;SDS011;47923;42.506;24.192;2023-11-21T13:56:22;21.13;;;6.95;;
61960;SDS011;47923;42.506;24.192;2023-11-21T13:58:52;13.70;;;7.38;;
61960;SDS011;47923;42.506;24.192;2023-11-21T14:01:23;13.38;;;7.78;;
61960;SDS011;47923;42.506;24.192;2023-11-21T14:04:07;14.40;;;7.72;;
61960;SDS011;47923;42.506;24.192;2023-11-21T14:06:53;18.73;;;11.18;;
61960;SDS011;47923;42.506;24.192;2023-11-21T14:09:20;17.05;;;10.52;;
61960;SDS011;47923;42.506;24.192;2023-11-21T14:11:51;15.38;;;8.68;;
61960;SDS011;47923;42.506;24.192;2023-11-21T14:14:18;17.38;;;9.45;;
61960;SDS011;47923;42.506;24.192;2023-11-21T14:16:45;23.88;;;13.48;;
61960;SDS011;47923;42.506;24.192;2023-11-21T14:19:11;21.08;;;12.45;;
61960;SDS011;47923;42.506;24.192;2023-11-21T14:21:43;19.40;;;11.30;;
61960;SDS011;47923;42.506;24.192;2023-11-21T14:24:10;14.55;;;7.88;;
61960;SDS011;47923;42.506;24.192;2023-11-21T14:26:37;13.93;;;9.63;;
61960;SDS011;47923;42.506;24.192;2023-11-21T14:29:07;19.30;;;14.43;;
61960;SDS011;47923;42.506;24.192;2023-11-21T14:31:33;66.80;;;34.92;;
61960;SDS011;47923;42.506;24.192;2023-11-21T14:33:59;22.08;;;9.23;;
61960;SDS011;47923;42.506;24.192;2023-11-21T14:36:27;55.65;;;32.17;;
61960;SDS011;47923;42.506;24.192;2023-11-21T14:38:53;35.55;;;21.73;;
61960;SDS011;47923;42.506;24.192;2023-11-21T14:41:19;32.90;;;19.50;;
61960;SDS011;47923;42.506;24.192;2023-11-21T14:43:45;20.60;;;11.77;;
61960;SDS011;47923;42.506;24.192;2023-11-21T14:46:14;28.52;;;15.65;;